createdAt,value
2023-04-22T00:00:28.839Z,83.00
2023-04-22T00:02:56.428Z,83.20
2023-04-22T00:05:23.561Z,83.50
2023-04-22T00:07:50.696Z,83.20
2023-04-22T00:10:17.703Z,83.20
2023-04-22T00:12:44.745Z,83.00
2023-04-22T00:15:11.879Z,83.40
2023-04-22T00:17:39.049Z,83.50
2023-04-22T00:20:07.718Z,83.10
2023-04-22T00:22:34.620Z,83.70
2023-04-22T00:25:02.879Z,84.00
2023-04-22T00:27:29.768Z,84.70
2023-04-22T00:29:56.612Z,85.00
2023-04-22T00:32:23.558Z,85.50
2023-04-22T00:34:50.544Z,87.10
2023-04-22T00:37:17.607Z,88.00
2023-04-22T00:39:44.531Z,90.10
2023-04-22T00:42:13.536Z,90.60
2023-04-22T00:44:42.459Z,90.60
2023-04-22T00:47:10.175Z,90.40
2023-04-22T00:49:37.354Z,90.60
2023-04-22T00:52:04.544Z,90.50
2023-04-22T00:54:33.807Z,90.20
2023-04-22T00:57:01.024Z,90.30
2023-04-22T00:59:28.033Z,91.20
2023-04-22T01:01:56.012Z,92.30
2023-04-22T01:04:24.569Z,92.90
2023-04-22T01:06:53.705Z,93.40
2023-04-22T01:09:20.902Z,93.00
2023-04-22T01:11:48.324Z,93.50
2023-04-22T01:14:15.918Z,93.40
2023-04-22T01:16:44.270Z,93.10
2023-04-22T01:19:12.131Z,92.80
2023-04-22T01:21:40.846Z,92.60
2023-04-22T01:24:09.301Z,92.60
2023-04-22T01:26:37.282Z,92.50
2023-04-22T01:29:05.562Z,92.60
2023-04-22T01:31:33.864Z,92.00
2023-04-22T01:34:01.859Z,92.20
2023-04-22T01:36:28.932Z,93.00
2023-04-22T01:38:56.417Z,93.60
2023-04-22T01:41:23.998Z,94.00
2023-04-22T01:43:53.804Z,94.30
2023-04-22T01:46:20.959Z,94.20
2023-04-22T01:48:51.408Z,94.50
2023-04-22T01:51:21.605Z,94.70
2023-04-22T01:53:52.061Z,94.70
2023-04-22T01:56:19.021Z,94.70
2023-04-22T01:58:45.873Z,94.80
2023-04-22T02:01:13.732Z,94.50
2023-04-22T02:03:41.525Z,95.00
2023-04-22T02:06:08.533Z,94.50
2023-04-22T02:08:35.622Z,94.90
2023-04-22T02:11:02.715Z,94.80
2023-04-22T02:13:38.297Z,94.50
2023-04-22T02:16:06.071Z,94.20
2023-04-22T02:18:33.303Z,94.20
2023-04-22T02:21:00.261Z,94.40
2023-04-22T02:23:28.204Z,94.60
2023-04-22T02:25:56.216Z,95.30
2023-04-22T02:28:23.316Z,95.70
2023-04-22T02:30:50.243Z,95.70
2023-04-22T02:33:17.217Z,95.10
2023-04-22T02:35:44.067Z,95.10
2023-04-22T02:38:11.371Z,95.10
2023-04-22T02:40:38.312Z,95.40
2023-04-22T02:43:05.318Z,96.50
2023-04-22T02:45:32.248Z,96.50
2023-04-22T02:48:01.375Z,96.40
2023-04-22T02:50:28.316Z,96.60
2023-04-22T02:52:55.150Z,96.60
2023-04-22T02:55:24.768Z,96.80
2023-04-22T02:57:51.715Z,97.10
2023-04-22T03:00:18.783Z,97.30
2023-04-22T03:02:45.829Z,97.70
2023-04-22T03:05:12.896Z,98.20
2023-04-22T03:07:39.755Z,98.70
2023-04-22T03:10:07.881Z,99.00
2023-04-22T03:12:34.806Z,99.40
2023-04-22T03:15:01.823Z,99.80
2023-04-22T03:17:28.740Z,99.90
2023-04-22T03:19:55.846Z,99.90
2023-04-22T03:22:22.794Z,99.90
2023-04-22T03:24:49.811Z,99.90
2023-04-22T03:27:16.667Z,99.90
2023-04-22T03:29:43.590Z,99.90
2023-04-22T03:32:11.009Z,99.90
2023-04-22T03:34:37.898Z,99.90
2023-04-22T03:37:04.782Z,99.90
2023-04-22T03:39:31.717Z,99.90
2023-04-22T03:41:58.604Z,99.90
2023-04-22T03:44:25.493Z,99.90
2023-04-22T03:46:52.350Z,99.90
2023-04-22T03:49:19.885Z,99.90
2023-04-22T03:51:46.726Z,99.90
2023-04-22T03:54:13.617Z,99.90
2023-04-22T03:56:41.085Z,99.90
2023-04-22T03:59:07.983Z,99.90
2023-04-22T04:01:36.150Z,99.90
2023-04-22T04:04:03.702Z,99.90
2023-04-22T04:06:31.889Z,99.90
2023-04-22T04:08:58.813Z,99.90
2023-04-22T04:11:25.870Z,99.90
2023-04-22T04:13:52.722Z,99.90
2023-04-22T04:16:19.640Z,99.90
2023-04-22T04:18:50.618Z,99.90
2023-04-22T04:21:18.422Z,99.90
2023-04-22T04:23:45.275Z,99.90
2023-04-22T04:26:12.185Z,99.90
2023-04-22T04:28:39.563Z,99.90
2023-04-22T04:31:06.501Z,99.90
2023-04-22T04:33:33.593Z,99.90
2023-04-22T04:36:01.651Z,99.90
2023-04-22T04:38:28.950Z,99.90
2023-04-22T04:40:55.878Z,99.90
2023-04-22T04:43:25.809Z,99.90
2023-04-22T04:45:53.557Z,99.90
2023-04-22T04:48:20.544Z,99.90
2023-04-22T04:50:47.457Z,99.90
2023-04-22T04:53:14.367Z,99.90
2023-04-22T04:55:41.374Z,99.90
2023-04-22T04:58:08.307Z,99.90
2023-04-22T05:00:35.180Z,99.90
2023-04-22T05:03:02.169Z,99.90
2023-04-22T05:05:29.757Z,99.90
2023-04-22T05:07:56.678Z,99.90
2023-04-22T05:10:24.605Z,99.90
2023-04-22T05:12:51.521Z,99.90
2023-04-22T05:15:18.606Z,99.90
2023-04-22T05:17:45.640Z,99.90
2023-04-22T05:20:12.556Z,99.90
2023-04-22T05:26:52.754Z,99.90
2023-04-22T05:29:19.649Z,99.90
2023-04-22T05:31:46.637Z,99.90
2023-04-22T05:34:13.558Z,99.90
2023-04-22T05:36:40.569Z,99.90
2023-04-22T05:39:07.548Z,99.90
2023-04-22T05:41:34.419Z,99.90
2023-04-22T05:44:02.214Z,99.90
2023-04-22T05:46:29.371Z,99.90
2023-04-22T05:48:56.494Z,99.90
2023-04-22T05:51:24.415Z,99.90
2023-04-22T05:53:51.374Z,99.70
2023-04-22T05:56:18.590Z,99.60
2023-04-22T05:58:45.587Z,98.10
2023-04-22T06:01:13.178Z,97.70
2023-04-22T06:03:42.951Z,97.90
2023-04-22T06:06:10.079Z,97.20
2023-04-22T06:08:37.066Z,96.90
2023-04-22T06:11:05.351Z,97.30
2023-04-22T06:13:32.213Z,97.60
2023-04-22T06:15:59.325Z,95.80
2023-04-22T06:18:29.397Z,95.90
2023-04-22T06:20:56.438Z,96.60
2023-04-22T06:23:23.428Z,96.70
2023-04-22T06:25:50.878Z,97.20
2023-04-22T06:28:17.793Z,97.00
2023-04-22T06:30:44.879Z,95.80
2023-04-22T06:33:12.372Z,95.00
2023-04-22T06:35:39.559Z,95.50
2023-04-22T06:38:06.590Z,95.30
2023-04-22T06:40:33.472Z,94.40
2023-04-22T06:43:00.467Z,94.10
2023-04-22T06:45:27.331Z,93.60
2023-04-22T06:47:54.350Z,93.30
2023-04-22T06:50:21.541Z,93.10
2023-04-22T06:52:48.557Z,92.80
2023-04-22T06:55:15.496Z,92.70
2023-04-22T06:57:42.492Z,92.70
2023-04-22T07:00:10.400Z,92.40
2023-04-22T07:02:37.282Z,93.10
2023-04-22T07:05:04.518Z,92.60
2023-04-22T07:07:31.503Z,92.20
2023-04-22T07:09:58.451Z,92.40
2023-04-22T07:12:25.790Z,92.10
2023-04-22T07:14:52.701Z,92.10
2023-04-22T07:17:22.439Z,92.80
2023-04-22T07:19:49.865Z,92.90
2023-04-22T07:22:16.859Z,92.10
2023-04-22T07:24:43.860Z,92.50
2023-04-22T07:27:10.858Z,92.10
2023-04-22T07:29:38.095Z,92.10
2023-04-22T07:32:05.377Z,91.90
2023-04-22T07:34:32.446Z,91.40
2023-04-22T07:36:59.562Z,91.40
2023-04-22T07:39:26.908Z,91.60
2023-04-22T07:41:53.903Z,91.30
2023-04-22T07:44:21.666Z,91.00
2023-04-22T07:46:50.275Z,91.10
2023-04-22T07:49:17.324Z,91.00
2023-04-22T07:51:45.559Z,90.90
2023-04-22T07:54:12.740Z,90.90
2023-04-22T07:56:39.738Z,90.60
2023-04-22T07:59:07.103Z,90.90
2023-04-22T08:01:34.062Z,89.40
2023-04-22T08:04:01.292Z,89.70
2023-04-22T08:06:28.710Z,90.30
2023-04-22T08:08:58.200Z,90.60
2023-04-22T08:11:25.221Z,90.70
2023-04-22T08:13:52.090Z,91.10
2023-04-22T08:16:19.701Z,90.30
2023-04-22T08:18:46.577Z,90.30
2023-04-22T08:21:14.520Z,90.30
2023-04-22T08:23:41.514Z,88.00
2023-04-22T08:26:08.661Z,89.20
2023-04-22T08:28:35.693Z,88.80
2023-04-22T08:31:02.751Z,88.40
2023-04-22T08:33:29.626Z,88.10
2023-04-22T08:35:57.448Z,88.50
2023-04-22T08:38:24.379Z,87.60
2023-04-22T08:40:56.098Z,86.60
2023-04-22T08:43:25.565Z,84.00
2023-04-22T08:45:53.254Z,87.40
2023-04-22T08:48:20.909Z,88.00
2023-04-22T08:50:49.323Z,87.40
2023-04-22T08:53:16.253Z,85.40
2023-04-22T08:55:45.612Z,84.90
2023-04-22T08:58:15.352Z,85.00
2023-04-22T09:00:45.858Z,84.50
2023-04-22T09:03:12.992Z,82.50
2023-04-22T09:05:41.220Z,83.50
2023-04-22T09:08:10.028Z,83.50
2023-04-22T09:10:38.636Z,82.20
2023-04-22T09:13:06.977Z,81.30
2023-04-22T09:15:34.397Z,82.30
2023-04-22T09:18:05.518Z,80.60
2023-04-22T09:20:32.500Z,80.50
2023-04-22T09:23:07.568Z,77.90
2023-04-22T09:25:37.458Z,77.20
2023-04-22T09:28:04.774Z,77.00
2023-04-22T09:30:37.698Z,77.10
2023-04-22T09:33:07.483Z,84.50
2023-04-22T09:35:40.543Z,81.90
2023-04-22T09:38:09.146Z,83.90
2023-04-22T09:40:38.401Z,85.70
2023-04-22T09:43:08.461Z,85.90
2023-04-22T09:45:41.733Z,84.10
2023-04-22T09:48:18.338Z,83.70
2023-04-22T09:50:49.751Z,81.90
2023-04-22T09:53:19.653Z,81.60
2023-04-22T09:55:50.889Z,82.00
2023-04-22T09:58:20.702Z,80.60
2023-04-22T10:00:57.234Z,82.40
2023-04-22T10:03:24.819Z,79.70
2023-04-22T10:05:52.319Z,79.80
2023-04-22T10:08:19.322Z,80.60
2023-04-22T10:10:46.799Z,78.90
2023-04-22T10:13:14.208Z,79.00
2023-04-22T10:15:44.243Z,79.60
2023-04-22T10:18:18.404Z,80.70
2023-04-22T10:20:47.414Z,82.40
2023-04-22T10:23:21.342Z,81.10
2023-04-22T10:25:55.802Z,80.70
2023-04-22T10:28:27.539Z,80.00
2023-04-22T10:30:54.528Z,79.50
2023-04-22T10:33:21.470Z,79.70
2023-04-22T10:36:11.354Z,79.30
2023-04-22T10:38:55.718Z,77.60
2023-04-22T10:41:40.560Z,80.30
2023-04-22T10:44:08.957Z,77.00
2023-04-22T10:46:40.093Z,78.00
2023-04-22T10:49:13.552Z,77.60
2023-04-22T10:51:45.357Z,78.70
2023-04-22T10:54:36.957Z,78.00
2023-04-22T10:57:22.515Z,75.80
2023-04-22T10:59:54.584Z,79.20
2023-04-22T11:02:24.785Z,78.90
2023-04-22T11:04:55.168Z,76.40
2023-04-22T11:07:27.877Z,78.70
2023-04-22T11:10:46.167Z,76.60
2023-04-22T11:13:20.481Z,74.20
2023-04-22T11:15:51.129Z,76.80
2023-04-22T11:18:25.788Z,77.50
2023-04-22T11:20:54.208Z,75.70
2023-04-22T11:23:28.892Z,77.00
2023-04-22T11:26:05.751Z,76.00
2023-04-22T11:28:33.197Z,77.60
2023-04-22T11:31:10.381Z,78.00
2023-04-22T11:33:39.167Z,77.60
2023-04-22T11:36:11.799Z,77.50
2023-04-22T11:38:39.126Z,76.80
2023-04-22T11:41:06.132Z,77.60
2023-04-22T11:43:33.120Z,77.20
2023-04-22T11:46:00.235Z,77.60
2023-04-22T11:48:27.307Z,75.00
2023-04-22T11:51:11.182Z,75.40
2023-04-22T11:53:43.051Z,74.20
2023-04-22T11:56:09.921Z,75.90
2023-04-22T11:58:40.818Z,77.10
2023-04-22T12:01:13.521Z,74.60
2023-04-22T12:03:40.701Z,76.40
2023-04-22T12:06:09.114Z,78.10
2023-04-22T12:08:44.369Z,77.80
2023-04-22T12:11:12.450Z,77.10
2023-04-22T12:13:41.169Z,78.20
2023-04-22T12:16:25.962Z,77.80
2023-04-22T12:18:56.498Z,79.30
2023-04-22T12:21:26.057Z,78.00
2023-04-22T12:24:05.025Z,76.30
2023-04-22T12:26:32.393Z,78.20
2023-04-22T12:29:00.802Z,78.30
2023-04-22T12:31:28.263Z,76.50
2023-04-22T12:33:56.063Z,75.70
2023-04-22T12:36:23.745Z,77.90
2023-04-22T12:38:51.301Z,78.30
2023-04-22T12:41:18.322Z,79.50
2023-04-22T12:43:45.327Z,77.30
2023-04-22T12:46:12.403Z,77.50
2023-04-22T12:48:40.590Z,78.00
2023-04-22T12:51:07.527Z,76.50
2023-04-22T12:53:34.914Z,76.00
2023-04-22T12:56:02.292Z,77.60
2023-04-22T12:58:29.244Z,80.30
2023-04-22T13:00:56.132Z,78.20
2023-04-22T13:03:23.482Z,76.80
2023-04-22T13:05:50.971Z,76.20
2023-04-22T13:08:18.149Z,78.00
2023-04-22T13:10:45.148Z,77.00
2023-04-22T13:15:41.897Z,77.30
2023-04-22T13:18:09.119Z,75.50
2023-04-22T13:20:36.174Z,76.70
2023-04-22T13:23:04.722Z,78.90
2023-04-22T13:25:31.963Z,77.70
2023-04-22T13:27:58.921Z,76.10
2023-04-22T13:30:26.089Z,76.80
2023-04-22T13:32:53.230Z,77.30
2023-04-22T13:35:20.804Z,77.50
2023-04-22T13:37:47.731Z,79.00
2023-04-22T13:40:14.873Z,78.60
2023-04-22T13:42:42.807Z,78.50
2023-04-22T13:45:10.232Z,80.20
2023-04-22T13:47:37.185Z,80.00
2023-04-22T13:50:05.950Z,78.10
2023-04-22T13:52:32.994Z,76.50
2023-04-22T13:54:59.953Z,76.40
2023-04-22T13:57:27.349Z,75.40
2023-04-22T13:59:54.269Z,75.90
2023-04-22T14:02:21.288Z,74.50
2023-04-22T14:04:48.188Z,76.60
2023-04-22T14:07:15.245Z,76.80
2023-04-22T14:09:42.585Z,76.40
2023-04-22T14:12:11.225Z,77.20
2023-04-22T14:14:38.929Z,77.10
2023-04-22T14:17:05.874Z,77.00
2023-04-22T14:19:33.675Z,77.20
2023-04-22T14:22:00.596Z,76.40
2023-04-22T14:24:28.086Z,76.20
2023-04-22T14:26:59.196Z,75.50
2023-04-22T14:29:26.261Z,78.00
2023-04-22T14:31:53.135Z,79.60
2023-04-22T14:34:20.041Z,77.70
2023-04-22T14:36:46.950Z,76.30
2023-04-22T14:39:13.917Z,76.90
2023-04-22T14:41:41.079Z,75.90
2023-04-22T14:44:07.954Z,77.30
2023-04-22T14:46:34.872Z,76.30
2023-04-22T14:49:01.815Z,76.40
2023-04-22T14:51:29.947Z,77.80
2023-04-22T14:53:59.757Z,77.10
2023-04-22T14:56:26.705Z,78.30
2023-04-22T14:58:53.558Z,78.50
2023-04-22T15:01:21.456Z,77.20
2023-04-22T15:03:49.104Z,77.00
2023-04-22T15:06:16.021Z,79.40
2023-04-22T15:08:42.966Z,79.00
2023-04-22T15:11:09.818Z,79.40
2023-04-22T15:13:36.716Z,78.10
2023-04-22T15:16:03.724Z,80.50
2023-04-22T15:18:30.754Z,80.60
2023-04-22T15:20:57.914Z,79.20
2023-04-22T15:23:24.889Z,79.90
2023-04-22T15:25:52.090Z,80.00
2023-04-22T15:28:19.102Z,81.20
2023-04-22T15:30:46.307Z,82.40
2023-04-22T15:33:14.870Z,82.10
2023-04-22T15:35:45.268Z,81.20
2023-04-22T15:38:12.144Z,82.00
2023-04-22T15:40:39.145Z,82.60
2023-04-22T15:43:06.068Z,82.90
2023-04-22T15:45:35.571Z,82.40
2023-04-22T15:48:03.332Z,81.70
2023-04-22T15:50:30.336Z,81.80
2023-04-22T15:52:57.372Z,80.50
2023-04-22T15:55:24.545Z,80.80
2023-04-22T15:57:51.487Z,80.40
2023-04-22T16:00:18.774Z,81.50
2023-04-22T16:02:46.511Z,79.50
2023-04-22T16:05:14.701Z,80.80
2023-04-22T16:07:41.967Z,81.40
2023-04-22T16:10:10.218Z,80.30
2023-04-22T16:12:37.065Z,81.90
2023-04-22T16:15:04.694Z,81.80
2023-04-22T16:17:31.793Z,81.50
2023-04-22T16:19:58.908Z,82.10
2023-04-22T16:22:25.833Z,82.80
2023-04-22T16:24:52.845Z,83.00
2023-04-22T16:27:19.803Z,82.60
2023-04-22T16:29:47.039Z,82.30
2023-04-22T16:32:14.235Z,82.30
2023-04-22T16:34:41.211Z,83.50
2023-04-22T16:37:08.232Z,83.60
2023-04-22T16:39:35.371Z,82.50
2023-04-22T16:42:03.106Z,81.60
2023-04-22T16:44:30.139Z,81.80
2023-04-22T16:46:57.156Z,81.60
2023-04-22T16:49:24.127Z,81.40
2023-04-22T16:51:51.065Z,81.60
2023-04-22T16:54:18.228Z,82.20
2023-04-22T16:56:45.126Z,82.50
2023-04-22T16:59:12.116Z,82.80
2023-04-22T17:01:40.851Z,83.00
2023-04-22T17:04:08.755Z,83.20
2023-04-22T17:06:39.620Z,83.90
2023-04-22T17:09:09.452Z,84.60
2023-04-22T17:11:36.375Z,85.40
2023-04-22T17:14:03.971Z,85.70
2023-04-22T17:16:31.289Z,86.30
2023-04-22T17:18:58.174Z,86.80
2023-04-22T17:21:26.153Z,87.40
2023-04-22T17:23:53.386Z,87.60
2023-04-22T17:26:20.604Z,88.30
2023-04-22T17:28:47.543Z,87.50
2023-04-22T17:31:15.856Z,87.60
2023-04-22T17:33:43.043Z,88.50
2023-04-22T17:36:09.985Z,88.80
2023-04-22T17:38:36.913Z,88.50
2023-04-22T17:41:03.916Z,89.00
2023-04-22T17:43:30.842Z,89.50
2023-04-22T17:45:57.813Z,89.90
2023-04-22T17:48:25.018Z,89.90
2023-04-22T17:50:52.327Z,90.20
2023-04-22T17:53:19.373Z,90.10
2023-04-22T17:55:46.399Z,90.10
2023-04-22T17:58:13.411Z,90.10
2023-04-22T18:00:40.606Z,90.20
2023-04-22T18:03:07.882Z,90.30
2023-04-22T18:05:35.107Z,90.20
2023-04-22T18:08:02.934Z,90.10
2023-04-22T18:10:30.974Z,90.30
2023-04-22T18:12:58.063Z,90.50
2023-04-22T18:15:25.213Z,90.60
2023-04-22T18:17:52.693Z,90.40
2023-04-22T18:20:20.099Z,90.50
2023-04-22T18:22:51.715Z,90.60
2023-04-22T18:25:19.160Z,90.60
2023-04-22T18:27:47.812Z,90.50
2023-04-22T18:30:18.795Z,90.60
2023-04-22T18:32:53.549Z,90.90
2023-04-22T18:35:20.904Z,91.40
2023-04-22T18:37:48.331Z,90.70
2023-04-22T18:40:17.505Z,90.90
2023-04-22T18:42:45.040Z,90.70
2023-04-22T18:45:12.745Z,90.70
2023-04-22T18:47:40.094Z,90.90
2023-04-22T18:50:08.209Z,90.90
2023-04-22T18:52:37.419Z,90.80
2023-04-22T18:55:05.178Z,91.30
2023-04-22T18:57:32.430Z,91.60
2023-04-22T19:00:01.123Z,91.70
2023-04-22T19:02:28.854Z,91.80
2023-04-22T19:04:56.941Z,91.70
2023-04-22T19:07:24.011Z,91.80
2023-04-22T19:09:51.052Z,91.90
2023-04-22T19:12:19.801Z,92.00
2023-04-22T19:14:50.147Z,92.10
2023-04-22T19:17:18.911Z,92.10
2023-04-22T19:19:47.385Z,92.20
2023-04-22T19:22:16.235Z,92.30
2023-04-22T19:24:44.965Z,92.30
2023-04-22T19:27:12.771Z,92.10
2023-04-22T19:29:42.901Z,92.20
2023-04-22T19:32:11.751Z,92.40
2023-04-22T19:34:39.686Z,92.40
2023-04-22T19:37:07.454Z,92.50
2023-04-22T19:39:35.993Z,92.50
2023-04-22T19:42:06.246Z,92.40
2023-04-22T19:44:33.486Z,92.70
2023-04-22T19:47:01.350Z,92.40
2023-04-22T19:49:31.304Z,92.40
2023-04-22T19:52:01.837Z,92.40
2023-04-22T19:54:30.347Z,92.40
2023-04-22T19:56:58.662Z,92.70
2023-04-22T19:59:28.117Z,92.80
2023-04-22T20:01:55.842Z,92.80
2023-04-22T20:04:23.582Z,93.00
2023-04-22T20:06:53.416Z,93.10
2023-04-22T20:09:22.076Z,93.20
2023-04-22T20:11:50.094Z,93.30
2023-04-22T20:14:18.784Z,93.30
2023-04-22T20:16:46.528Z,93.40
2023-04-22T20:19:14.930Z,93.50
2023-04-22T20:21:47.607Z,93.30
2023-04-22T20:24:19.768Z,93.10
2023-04-22T20:26:50.690Z,92.90
2023-04-22T20:29:30.398Z,92.90
2023-04-22T20:31:59.185Z,92.90
2023-04-22T20:34:26.849Z,92.90
2023-04-22T20:36:55.178Z,93.00
2023-04-22T20:39:25.973Z,93.10
2023-04-22T20:41:58.530Z,93.30
2023-04-22T20:44:26.176Z,93.30
2023-04-22T20:46:53.343Z,93.50
2023-04-22T20:49:20.486Z,93.50
2023-04-22T20:51:48.460Z,93.90
2023-04-22T20:54:27.730Z,93.70
2023-04-22T20:56:57.937Z,93.70
2023-04-22T20:59:25.174Z,93.60
2023-04-22T21:01:54.711Z,93.60
2023-04-22T21:04:26.712Z,93.60
2023-04-22T21:06:56.174Z,93.60
2023-04-22T21:09:27.856Z,93.50
2023-04-22T21:11:55.685Z,93.40
2023-04-22T21:14:26.425Z,93.70
2023-04-22T21:17:03.144Z,93.60
2023-04-22T21:19:34.532Z,93.60
2023-04-22T21:22:06.887Z,93.50
2023-04-22T21:24:38.001Z,93.80
2023-04-22T21:27:06.894Z,93.80
2023-04-22T21:29:34.569Z,93.90
2023-04-22T21:32:09.401Z,94.00
2023-04-22T21:34:38.034Z,94.20
2023-04-22T21:37:07.289Z,94.20
2023-04-22T21:39:35.153Z,94.20
2023-04-22T21:42:03.193Z,94.10
2023-04-22T21:44:30.476Z,94.00
2023-04-22T21:46:57.761Z,94.00
2023-04-22T21:49:24.747Z,93.90
2023-04-22T21:51:51.999Z,94.10
2023-04-22T21:54:20.725Z,94.10
2023-04-22T21:56:48.380Z,94.00
2023-04-22T21:59:15.488Z,94.00
2023-04-22T22:01:42.604Z,93.90
2023-04-22T22:04:09.823Z,94.00
2023-04-22T22:06:38.294Z,93.90
2023-04-22T22:09:05.422Z,94.00
2023-04-22T22:11:32.478Z,94.00
2023-04-22T22:13:59.507Z,94.00
2023-04-22T22:16:26.617Z,94.20
2023-04-22T22:18:55.672Z,94.30
2023-04-22T22:21:22.649Z,94.30
2023-04-22T22:23:49.676Z,94.30
2023-04-22T22:26:16.952Z,94.40
2023-04-22T22:28:44.065Z,94.50
2023-04-22T22:31:11.000Z,94.30
2023-04-22T22:33:37.831Z,94.10
2023-04-22T22:36:04.826Z,94.10
2023-04-22T22:38:32.203Z,94.00
2023-04-22T22:40:59.153Z,94.00
2023-04-22T22:43:26.758Z,94.20
2023-04-22T22:45:53.898Z,94.30
2023-04-22T22:48:21.042Z,94.20
2023-04-22T22:50:48.953Z,94.20
2023-04-22T22:53:15.959Z,94.20
2023-04-22T22:55:42.882Z,94.10
2023-04-22T22:58:09.799Z,94.10
2023-04-22T23:00:37.184Z,94.10
2023-04-22T23:03:04.689Z,94.10
2023-04-22T23:05:31.908Z,94.20
2023-04-22T23:07:58.986Z,94.40
2023-04-22T23:10:25.895Z,94.50
2023-04-22T23:12:52.863Z,94.60
2023-04-22T23:15:19.836Z,94.50
2023-04-22T23:17:46.709Z,94.50
2023-04-22T23:20:14.062Z,94.70
2023-04-22T23:22:43.083Z,94.70
2023-04-22T23:25:11.205Z,94.70
2023-04-22T23:27:38.443Z,94.60
2023-04-22T23:30:06.536Z,94.60
2023-04-22T23:32:35.818Z,94.60
2023-04-22T23:35:04.148Z,94.60
2023-04-22T23:37:32.622Z,94.50
2023-04-22T23:39:59.594Z,94.50
2023-04-22T23:42:26.517Z,94.50
2023-04-22T23:44:53.837Z,94.50
2023-04-22T23:47:20.982Z,94.60
2023-04-22T23:49:47.976Z,94.60
2023-04-22T23:52:14.856Z,94.60
2023-04-22T23:54:44.529Z,94.40
2023-04-22T23:57:11.949Z,94.60
2023-04-22T23:59:39.374Z,95.00
